sensor_id;sensor_type;location;lat;lon;timestamp;temperature;humidity
22940;DHT22;11636;52.086;5.090;2022-12-18T00:02:32;-2.00;99.90
22940;DHT22;11636;52.086;5.090;2022-12-18T00:04:59;-2.00;99.90
22940;DHT22;11636;52.086;5.090;2022-12-18T00:07:35;-2.00;99.90
22940;DHT22;11636;52.086;5.090;2022-12-18T00:10:02;-2.00;99.90
22940;DHT22;11636;52.086;5.090;2022-12-18T00:12:29;-2.00;99.90
22940;DHT22;11636;52.086;5.090;2022-12-18T00:15:04;-2.00;99.90
22940;DHT22;11636;52.086;5.090;2022-12-18T00:17:37;-2.00;99.90
22940;DHT22;11636;52.086;5.090;2022-12-18T00:20:10;-2.00;99.90
22940;DHT22;11636;52.086;5.090;2022-12-18T00:22:37;-2.00;99.90
22940;DHT22;11636;52.086;5.090;2022-12-18T00:25:10;-2.00;99.90
22940;DHT22;11636;52.086;5.090;2022-12-18T00:27:41;-2.10;99.90
22940;DHT22;11636;52.086;5.090;2022-12-18T00:30:14;-2.10;99.90
22940;DHT22;11636;52.086;5.090;2022-12-18T00:32:41;-2.10;99.90
22940;DHT22;11636;52.086;5.090;2022-12-18T00:35:08;-2.10;99.90
22940;DHT22;11636;52.086;5.090;2022-12-18T00:37:41;-2.10;99.90
22940;DHT22;11636;52.086;5.090;2022-12-18T00:40:14;-2.10;99.90
22940;DHT22;11636;52.086;5.090;2022-12-18T00:42:43;-2.10;99.90
22940;DHT22;11636;52.086;5.090;2022-12-18T00:45:31;-2.10;99.90
22940;DHT22;11636;52.086;5.090;2022-12-18T00:48:05;-2.10;99.90
22940;DHT22;11636;52.086;5.090;2022-12-18T00:50:32;-2.20;99.90
22940;DHT22;11636;52.086;5.090;2022-12-18T00:53:09;-2.20;99.90
22940;DHT22;11636;52.086;5.090;2022-12-18T00:55:38;-2.20;99.90
22940;DHT22;11636;52.086;5.090;2022-12-18T00:58:06;-2.20;99.90
22940;DHT22;11636;52.086;5.090;2022-12-18T01:00:39;-2.30;99.90
22940;DHT22;11636;52.086;5.090;2022-12-18T01:03:06;-2.30;99.90
22940;DHT22;11636;52.086;5.090;2022-12-18T01:05:33;-2.30;99.90
22940;DHT22;11636;52.086;5.090;2022-12-18T01:08:06;-2.30;99.90
22940;DHT22;11636;52.086;5.090;2022-12-18T01:10:33;-2.40;99.90
22940;DHT22;11636;52.086;5.090;2022-12-18T01:13:00;-2.40;99.90
22940;DHT22;11636;52.086;5.090;2022-12-18T01:15:33;-2.40;99.90
22940;DHT22;11636;52.086;5.090;2022-12-18T01:18:09;-2.50;99.90
22940;DHT22;11636;52.086;5.090;2022-12-18T01:20:37;-2.50;99.90
22940;DHT22;11636;52.086;5.090;2022-12-18T01:23:11;-2.40;99.90
22940;DHT22;11636;52.086;5.090;2022-12-18T01:25:38;-2.50;99.90
22940;DHT22;11636;52.086;5.090;2022-12-18T01:28:05;-2.40;99.90
22940;DHT22;11636;52.086;5.090;2022-12-18T01:30:38;-2.40;99.90
22940;DHT22;11636;52.086;5.090;2022-12-18T01:33:11;-2.40;99.90
22940;DHT22;11636;52.086;5.090;2022-12-18T01:35:42;-2.50;99.90
22940;DHT22;11636;52.086;5.090;2022-12-18T01:38:09;-2.50;99.90
22940;DHT22;11636;52.086;5.090;2022-12-18T01:40:42;-2.50;99.90
22940;DHT22;11636;52.086;5.090;2022-12-18T01:43:17;-2.50;99.90
22940;DHT22;11636;52.086;5.090;2022-12-18T01:45:44;-2.50;99.90
22940;DHT22;11636;52.086;5.090;2022-12-18T01:48:11;-2.50;99.90
22940;DHT22;11636;52.086;5.090;2022-12-18T01:50:44;-2.60;99.90
22940;DHT22;11636;52.086;5.090;2022-12-18T01:53:15;-2.50;99.90
22940;DHT22;11636;52.086;5.090;2022-12-18T01:55:54;-2.60;99.90
22940;DHT22;11636;52.086;5.090;2022-12-18T01:58:39;-2.70;99.90
22940;DHT22;11636;52.086;5.090;2022-12-18T02:01:13;-2.60;99.90
22940;DHT22;11636;52.086;5.090;2022-12-18T02:03:43;-2.70;99.90
22940;DHT22;11636;52.086;5.090;2022-12-18T02:06:34;-2.70;99.90
22940;DHT22;11636;52.086;5.090;2022-12-18T02:09:20;-2.70;99.90
22940;DHT22;11636;52.086;5.090;2022-12-18T02:12:18;-2.80;99.90
22940;DHT22;11636;52.086;5.090;2022-12-18T02:17:26;-2.70;99.90
22940;DHT22;11636;52.086;5.090;2022-12-18T02:20:18;-2.70;99.90
22940;DHT22;11636;52.086;5.090;2022-12-18T02:28:41;-2.80;99.90
22940;DHT22;11636;52.086;5.090;2022-12-18T02:31:19;-2.80;99.90
22940;DHT22;11636;52.086;5.090;2022-12-18T02:33:49;-2.80;99.90
22940;DHT22;11636;52.086;5.090;2022-12-18T02:36:32;-2.80;99.90
22940;DHT22;11636;52.086;5.090;2022-12-18T02:39:01;-2.90;99.90
22940;DHT22;11636;52.086;5.090;2022-12-18T02:41:36;-3.00;99.90
22940;DHT22;11636;52.086;5.090;2022-12-18T02:44:09;-3.00;99.90
22940;DHT22;11636;52.086;5.090;2022-12-18T02:46:48;-3.10;99.90
22940;DHT22;11636;52.086;5.090;2022-12-18T02:58:10;-3.30;99.90
22940;DHT22;11636;52.086;5.090;2022-12-18T03:03:34;-3.40;99.90
22940;DHT22;11636;52.086;5.090;2022-12-18T03:06:10;-3.50;99.90
22940;DHT22;11636;52.086;5.090;2022-12-18T03:08:48;-3.50;99.90
22940;DHT22;11636;52.086;5.090;2022-12-18T03:11:17;-3.50;99.90
22940;DHT22;11636;52.086;5.090;2022-12-18T03:14:13;-3.60;99.90
22940;DHT22;11636;52.086;5.090;2022-12-18T03:16:43;-3.60;99.90
22940;DHT22;11636;52.086;5.090;2022-12-18T03:19:22;-3.60;99.90
22940;DHT22;11636;52.086;5.090;2022-12-18T03:21:54;-3.60;99.90
22940;DHT22;11636;52.086;5.090;2022-12-18T03:24:29;-3.60;99.90
22940;DHT22;11636;52.086;5.090;2022-12-18T03:27:01;-3.60;99.90
22940;DHT22;11636;52.086;5.090;2022-12-18T03:29:45;-3.70;99.90
22940;DHT22;11636;52.086;5.090;2022-12-18T03:32:29;-3.70;99.90
22940;DHT22;11636;52.086;5.090;2022-12-18T03:35:05;-3.70;99.90
22940;DHT22;11636;52.086;5.090;2022-12-18T03:37:33;-3.70;99.90
22940;DHT22;11636;52.086;5.090;2022-12-18T03:40:06;-3.70;99.90
22940;DHT22;11636;52.086;5.090;2022-12-18T03:42:46;-3.80;99.90
22940;DHT22;11636;52.086;5.090;2022-12-18T03:50:53;-3.80;99.90
22940;DHT22;11636;52.086;5.090;2022-12-18T03:53:51;-3.90;99.90
22940;DHT22;11636;52.086;5.090;2022-12-18T03:56:28;-3.90;99.90
22940;DHT22;11636;52.086;5.090;2022-12-18T03:58:56;-3.90;99.90
22940;DHT22;11636;52.086;5.090;2022-12-18T04:01:37;-3.90;99.90
22940;DHT22;11636;52.086;5.090;2022-12-18T04:04:06;-3.90;99.90
22940;DHT22;11636;52.086;5.090;2022-12-18T04:06:40;-3.90;99.90
22940;DHT22;11636;52.086;5.090;2022-12-18T04:09:08;-4.00;99.90
22940;DHT22;11636;52.086;5.090;2022-12-18T04:11:35;-4.00;99.90
22940;DHT22;11636;52.086;5.090;2022-12-18T04:14:09;-4.00;99.90
22940;DHT22;11636;52.086;5.090;2022-12-18T04:16:43;-4.00;99.90
22940;DHT22;11636;52.086;5.090;2022-12-18T04:19:16;-4.00;99.90
22940;DHT22;11636;52.086;5.090;2022-12-18T04:21:43;-4.00;99.90
22940;DHT22;11636;52.086;5.090;2022-12-18T04:24:24;-4.00;99.90
22940;DHT22;11636;52.086;5.090;2022-12-18T04:27:04;-4.00;99.90
22940;DHT22;11636;52.086;5.090;2022-12-18T04:29:38;-4.00;99.90
22940;DHT22;11636;52.086;5.090;2022-12-18T04:32:12;-4.00;99.90
22940;DHT22;11636;52.086;5.090;2022-12-18T04:34:44;-4.10;99.90
22940;DHT22;11636;52.086;5.090;2022-12-18T04:37:11;-4.10;99.90
22940;DHT22;11636;52.086;5.090;2022-12-18T04:39:44;-4.10;99.90
22940;DHT22;11636;52.086;5.090;2022-12-18T04:42:11;-4.10;99.90
22940;DHT22;11636;52.086;5.090;2022-12-18T04:44:44;-4.20;99.90
22940;DHT22;11636;52.086;5.090;2022-12-18T04:47:11;-4.20;99.90
22940;DHT22;11636;52.086;5.090;2022-12-18T04:49:44;-4.20;99.90
22940;DHT22;11636;52.086;5.090;2022-12-18T04:52:11;-4.20;99.90
22940;DHT22;11636;52.086;5.090;2022-12-18T04:54:44;-4.30;99.90
22940;DHT22;11636;52.086;5.090;2022-12-18T04:57:13;-4.30;99.90
22940;DHT22;11636;52.086;5.090;2022-12-18T04:59:40;-4.30;99.90
22940;DHT22;11636;52.086;5.090;2022-12-18T05:02:13;-4.30;99.90
22940;DHT22;11636;52.086;5.090;2022-12-18T05:04:47;-4.30;99.90
22940;DHT22;11636;52.086;5.090;2022-12-18T05:07:14;-4.30;99.90
22940;DHT22;11636;52.086;5.090;2022-12-18T05:09:43;-4.30;99.90
22940;DHT22;11636;52.086;5.090;2022-12-18T05:12:17;-4.30;99.90
22940;DHT22;11636;52.086;5.090;2022-12-18T05:14:43;-4.30;99.90
22940;DHT22;11636;52.086;5.090;2022-12-18T05:17:17;-4.30;99.90
22940;DHT22;11636;52.086;5.090;2022-12-18T05:19:44;-4.30;99.90
22940;DHT22;11636;52.086;5.090;2022-12-18T05:22:11;-4.30;99.90
22940;DHT22;11636;52.086;5.090;2022-12-18T05:24:44;-4.40;99.90
22940;DHT22;11636;52.086;5.090;2022-12-18T05:27:11;-4.30;99.90
22940;DHT22;11636;52.086;5.090;2022-12-18T05:29:44;-4.30;99.90
22940;DHT22;11636;52.086;5.090;2022-12-18T05:32:11;-4.40;99.90
22940;DHT22;11636;52.086;5.090;2022-12-18T05:34:44;-4.40;99.90
22940;DHT22;11636;52.086;5.090;2022-12-18T05:37:18;-4.40;99.90
22940;DHT22;11636;52.086;5.090;2022-12-18T05:39:45;-4.40;99.90
22940;DHT22;11636;52.086;5.090;2022-12-18T05:42:18;-4.30;99.90
22940;DHT22;11636;52.086;5.090;2022-12-18T05:44:51;-4.30;99.90
22940;DHT22;11636;52.086;5.090;2022-12-18T05:47:22;-4.30;99.90
22940;DHT22;11636;52.086;5.090;2022-12-18T05:49:56;-4.40;99.90
22940;DHT22;11636;52.086;5.090;2022-12-18T05:52:23;-4.40;99.90
22940;DHT22;11636;52.086;5.090;2022-12-18T05:54:57;-4.40;99.90
22940;DHT22;11636;52.086;5.090;2022-12-18T05:57:27;-4.40;99.90
22940;DHT22;11636;52.086;5.090;2022-12-18T05:59:53;-4.40;99.90
22940;DHT22;11636;52.086;5.090;2022-12-18T06:02:27;-4.40;99.90
22940;DHT22;11636;52.086;5.090;2022-12-18T06:04:54;-4.40;99.90
22940;DHT22;11636;52.086;5.090;2022-12-18T06:07:21;-4.40;99.90
22940;DHT22;11636;52.086;5.090;2022-12-18T06:09:59;-4.40;99.90
22940;DHT22;11636;52.086;5.090;2022-12-18T06:12:36;-4.50;99.90
22940;DHT22;11636;52.086;5.090;2022-12-18T06:15:03;-4.50;99.90
22940;DHT22;11636;52.086;5.090;2022-12-18T06:17:34;-4.50;99.90
22940;DHT22;11636;52.086;5.090;2022-12-18T06:20:08;-4.50;99.90
22940;DHT22;11636;52.086;5.090;2022-12-18T06:22:45;-4.60;99.90
22940;DHT22;11636;52.086;5.090;2022-12-18T06:25:12;-4.60;99.90
22940;DHT22;11636;52.086;5.090;2022-12-18T06:27:44;-4.50;99.90
22940;DHT22;11636;52.086;5.090;2022-12-18T06:30:18;-4.60;99.90
22940;DHT22;11636;52.086;5.090;2022-12-18T06:32:45;-4.60;99.90
22940;DHT22;11636;52.086;5.090;2022-12-18T06:35:22;-4.50;99.90
22940;DHT22;11636;52.086;5.090;2022-12-18T06:37:57;-4.60;99.90
22940;DHT22;11636;52.086;5.090;2022-12-18T06:40:24;-4.50;99.90
22940;DHT22;11636;52.086;5.090;2022-12-18T06:42:54;-4.60;99.90
22940;DHT22;11636;52.086;5.090;2022-12-18T06:45:27;-4.60;99.90
22940;DHT22;11636;52.086;5.090;2022-12-18T06:47:54;-4.60;99.90
22940;DHT22;11636;52.086;5.090;2022-12-18T06:50:20;-4.60;99.90
22940;DHT22;11636;52.086;5.090;2022-12-18T06:52:54;-4.60;99.90
22940;DHT22;11636;52.086;5.090;2022-12-18T06:55:28;-4.60;99.90
22940;DHT22;11636;52.086;5.090;2022-12-18T06:57:56;-4.60;99.90
22940;DHT22;11636;52.086;5.090;2022-12-18T07:00:30;-4.60;99.90
22940;DHT22;11636;52.086;5.090;2022-12-18T07:03:22;-4.60;99.90
22940;DHT22;11636;52.086;5.090;2022-12-18T07:05:49;-4.60;99.90
22940;DHT22;11636;52.086;5.090;2022-12-18T07:08:22;-4.60;99.90
22940;DHT22;11636;52.086;5.090;2022-12-18T07:10:50;-4.60;99.90
22940;DHT22;11636;52.086;5.090;2022-12-18T07:13:22;-4.60;99.90
22940;DHT22;11636;52.086;5.090;2022-12-18T07:15:55;-4.60;99.90
22940;DHT22;11636;52.086;5.090;2022-12-18T07:18:21;-4.60;99.90
22940;DHT22;11636;52.086;5.090;2022-12-18T07:20:56;-4.60;99.90
22940;DHT22;11636;52.086;5.090;2022-12-18T07:23:22;-4.60;99.90
22940;DHT22;11636;52.086;5.090;2022-12-18T07:26:01;-4.60;99.90
22940;DHT22;11636;52.086;5.090;2022-12-18T07:28:28;-4.60;99.90
22940;DHT22;11636;52.086;5.090;2022-12-18T07:30:55;-4.60;99.90
22940;DHT22;11636;52.086;5.090;2022-12-18T07:33:29;-4.60;99.90
22940;DHT22;11636;52.086;5.090;2022-12-18T07:35:56;-4.60;99.90
22940;DHT22;11636;52.086;5.090;2022-12-18T07:38:31;-4.60;99.90
22940;DHT22;11636;52.086;5.090;2022-12-18T07:41:07;-4.50;99.90
22940;DHT22;11636;52.086;5.090;2022-12-18T07:43:41;-4.50;99.90
22940;DHT22;11636;52.086;5.090;2022-12-18T07:46:16;-4.60;99.90
22940;DHT22;11636;52.086;5.090;2022-12-18T07:48:49;-4.60;99.90
22940;DHT22;11636;52.086;5.090;2022-12-18T07:51:16;-4.60;99.90
22940;DHT22;11636;52.086;5.090;2022-12-18T07:53:51;-4.50;99.90
22940;DHT22;11636;52.086;5.090;2022-12-18T07:56:18;-4.50;99.90
22940;DHT22;11636;52.086;5.090;2022-12-18T07:58:55;-4.50;99.90
22940;DHT22;11636;52.086;5.090;2022-12-18T08:01:29;-4.50;99.90
22940;DHT22;11636;52.086;5.090;2022-12-18T08:04:02;-4.50;99.90
22940;DHT22;11636;52.086;5.090;2022-12-18T08:06:37;-4.40;99.90
22940;DHT22;11636;52.086;5.090;2022-12-18T08:09:04;-4.40;99.90
22940;DHT22;11636;52.086;5.090;2022-12-18T08:11:37;-4.30;99.90
22940;DHT22;11636;52.086;5.090;2022-12-18T08:14:03;-4.30;99.90
22940;DHT22;11636;52.086;5.090;2022-12-18T08:16:37;-4.30;99.90
22940;DHT22;11636;52.086;5.090;2022-12-18T08:19:04;-4.30;99.90
22940;DHT22;11636;52.086;5.090;2022-12-18T08:21:37;-4.20;99.90
22940;DHT22;11636;52.086;5.090;2022-12-18T08:24:04;-4.20;99.90
22940;DHT22;11636;52.086;5.090;2022-12-18T08:26:32;-4.20;99.90
22940;DHT22;11636;52.086;5.090;2022-12-18T08:29:05;-4.10;99.90
22940;DHT22;11636;52.086;5.090;2022-12-18T08:31:36;-4.10;99.90
22940;DHT22;11636;52.086;5.090;2022-12-18T08:34:10;-4.10;99.90
22940;DHT22;11636;52.086;5.090;2022-12-18T08:36:37;-4.10;99.90
22940;DHT22;11636;52.086;5.090;2022-12-18T08:39:04;-4.10;99.90
22940;DHT22;11636;52.086;5.090;2022-12-18T08:41:38;-4.10;99.90
22940;DHT22;11636;52.086;5.090;2022-12-18T08:44:11;-4.10;99.90
22940;DHT22;11636;52.086;5.090;2022-12-18T08:47:21;-4.00;99.90
22940;DHT22;11636;52.086;5.090;2022-12-18T08:49:48;-3.90;99.90
22940;DHT22;11636;52.086;5.090;2022-12-18T08:52:23;-3.90;99.90
22940;DHT22;11636;52.086;5.090;2022-12-18T08:54:50;-3.80;99.90
22940;DHT22;11636;52.086;5.090;2022-12-18T08:57:27;-3.80;99.90
22940;DHT22;11636;52.086;5.090;2022-12-18T08:59:55;-3.70;99.90
22940;DHT22;11636;52.086;5.090;2022-12-18T09:02:26;-3.60;99.90
22940;DHT22;11636;52.086;5.090;2022-12-18T09:05:00;-3.60;99.90
22940;DHT22;11636;52.086;5.090;2022-12-18T09:07:33;-3.50;99.90
22940;DHT22;11636;52.086;5.090;2022-12-18T09:10:00;-3.40;99.90
22940;DHT22;11636;52.086;5.090;2022-12-18T09:12:33;-3.40;99.90
22940;DHT22;11636;52.086;5.090;2022-12-18T09:15:07;-3.30;99.90
22940;DHT22;11636;52.086;5.090;2022-12-18T09:17:34;-3.30;99.90
22940;DHT22;11636;52.086;5.090;2022-12-18T09:20:01;-3.30;99.90
22940;DHT22;11636;52.086;5.090;2022-12-18T09:22:34;-3.20;99.90
22940;DHT22;11636;52.086;5.090;2022-12-18T09:25:01;-3.20;99.90
22940;DHT22;11636;52.086;5.090;2022-12-18T09:27:35;-3.10;99.90
22940;DHT22;11636;52.086;5.090;2022-12-18T09:30:03;-3.00;99.90
22940;DHT22;11636;52.086;5.090;2022-12-18T09:32:37;-3.00;99.90
22940;DHT22;11636;52.086;5.090;2022-12-18T09:35:04;-2.90;99.90
22940;DHT22;11636;52.086;5.090;2022-12-18T09:37:39;-2.90;99.90
22940;DHT22;11636;52.086;5.090;2022-12-18T09:40:21;-2.80;99.90
22940;DHT22;11636;52.086;5.090;2022-12-18T09:42:59;-2.80;99.90
22940;DHT22;11636;52.086;5.090;2022-12-18T09:45:27;-2.70;99.90
22940;DHT22;11636;52.086;5.090;2022-12-18T09:48:03;-2.70;99.90
22940;DHT22;11636;52.086;5.090;2022-12-18T09:50:34;-2.60;99.90
22940;DHT22;11636;52.086;5.090;2022-12-18T09:53:16;-2.60;99.90
22940;DHT22;11636;52.086;5.090;2022-12-18T09:55:47;-2.50;99.90
22940;DHT22;11636;52.086;5.090;2022-12-18T09:58:39;-2.50;99.90
22940;DHT22;11636;52.086;5.090;2022-12-18T10:01:18;-2.40;99.90
22940;DHT22;11636;52.086;5.090;2022-12-18T10:04:08;-2.40;99.90
22940;DHT22;11636;52.086;5.090;2022-12-18T10:06:45;-2.30;99.90
22940;DHT22;11636;52.086;5.090;2022-12-18T10:09:32;-2.20;99.90
22940;DHT22;11636;52.086;5.090;2022-12-18T10:12:32;-2.20;99.90
22940;DHT22;11636;52.086;5.090;2022-12-18T10:18:12;-2.10;99.90
22940;DHT22;11636;52.086;5.090;2022-12-18T10:20:54;-2.10;99.90
22940;DHT22;11636;52.086;5.090;2022-12-18T10:26:12;-2.00;99.90
22940;DHT22;11636;52.086;5.090;2022-12-18T10:28:47;-1.90;99.90
22940;DHT22;11636;52.086;5.090;2022-12-18T10:31:18;-1.90;99.90
22940;DHT22;11636;52.086;5.090;2022-12-18T10:33:45;-1.90;99.90
22940;DHT22;11636;52.086;5.090;2022-12-18T10:36:20;-1.80;99.90
22940;DHT22;11636;52.086;5.090;2022-12-18T10:38:53;-1.80;99.90
22940;DHT22;11636;52.086;5.090;2022-12-18T10:41:27;-1.80;99.90
22940;DHT22;11636;52.086;5.090;2022-12-18T10:44:23;-1.70;99.90
22940;DHT22;11636;52.086;5.090;2022-12-18T10:47:10;-1.70;99.90
22940;DHT22;11636;52.086;5.090;2022-12-18T10:49:47;-1.60;99.90
22940;DHT22;11636;52.086;5.090;2022-12-18T10:52:29;-1.60;99.90
22940;DHT22;11636;52.086;5.090;2022-12-18T10:55:04;-1.60;99.90
22940;DHT22;11636;52.086;5.090;2022-12-18T10:57:39;-1.50;99.90
22940;DHT22;11636;52.086;5.090;2022-12-18T11:00:28;-1.50;99.90
22940;DHT22;11636;52.086;5.090;2022-12-18T11:04:08;-1.40;99.90
22940;DHT22;11636;52.086;5.090;2022-12-18T11:06:27;-1.40;99.90
22940;DHT22;11636;52.086;5.090;2022-12-18T11:11:40;-1.30;99.90
22940;DHT22;11636;52.086;5.090;2022-12-18T11:16:54;-1.20;99.90
22940;DHT22;11636;52.086;5.090;2022-12-18T11:19:57;-1.20;99.90
22940;DHT22;11636;52.086;5.090;2022-12-18T11:22:33;-1.10;99.90
22940;DHT22;11636;52.086;5.090;2022-12-18T11:28:03;-1.10;99.90
22940;DHT22;11636;52.086;5.090;2022-12-18T11:30:36;-1.00;99.90
22940;DHT22;11636;52.086;5.090;2022-12-18T11:33:19;-1.00;99.90
22940;DHT22;11636;52.086;5.090;2022-12-18T11:36:01;-1.00;99.90
22940;DHT22;11636;52.086;5.090;2022-12-18T11:38:33;-0.90;99.90
22940;DHT22;11636;52.086;5.090;2022-12-18T11:41:23;-0.90;99.90
22940;DHT22;11636;52.086;5.090;2022-12-18T11:44:31;-0.90;99.90
22940;DHT22;11636;52.086;5.090;2022-12-18T11:49:49;-0.90;99.90
22940;DHT22;11636;52.086;5.090;2022-12-18T11:52:21;-0.80;99.90
22940;DHT22;11636;52.086;5.090;2022-12-18T11:54:59;-0.80;99.90
22940;DHT22;11636;52.086;5.090;2022-12-18T11:57:58;-0.80;99.90
22940;DHT22;11636;52.086;5.090;2022-12-18T12:00:31;-0.80;99.90
22940;DHT22;11636;52.086;5.090;2022-12-18T12:14:17;-0.50;99.90
22940;DHT22;11636;52.086;5.090;2022-12-18T12:16:58;-0.50;99.90
22940;DHT22;11636;52.086;5.090;2022-12-18T12:19:38;-0.50;99.90
22940;DHT22;11636;52.086;5.090;2022-12-18T12:24:56;-0.50;99.90
22940;DHT22;11636;52.086;5.090;2022-12-18T12:30:26;-0.50;99.90
22940;DHT22;11636;52.086;5.090;2022-12-18T12:38:44;-0.50;99.90
22940;DHT22;11636;52.086;5.090;2022-12-18T12:41:25;-0.50;99.90
22940;DHT22;11636;52.086;5.090;2022-12-18T12:44:22;-0.40;99.90
22940;DHT22;11636;52.086;5.090;2022-12-18T12:47:01;-0.50;99.90
22940;DHT22;11636;52.086;5.090;2022-12-18T12:49:33;-0.50;99.90
22940;DHT22;11636;52.086;5.090;2022-12-18T12:52:19;-0.40;99.90
22940;DHT22;11636;52.086;5.090;2022-12-18T12:54:56;-0.40;99.90
22940;DHT22;11636;52.086;5.090;2022-12-18T12:57:39;-0.40;99.90
22940;DHT22;11636;52.086;5.090;2022-12-18T13:00:18;-0.40;99.90
22940;DHT22;11636;52.086;5.090;2022-12-18T13:03:04;-0.40;99.90
22940;DHT22;11636;52.086;5.090;2022-12-18T13:08:24;-0.40;99.90
22940;DHT22;11636;52.086;5.090;2022-12-18T13:10:54;-0.40;99.90
22940;DHT22;11636;52.086;5.090;2022-12-18T13:13:52;-0.40;99.90
22940;DHT22;11636;52.086;5.090;2022-12-18T13:16:22;-0.40;99.90
22940;DHT22;11636;52.086;5.090;2022-12-18T13:18:57;-0.40;99.90
22940;DHT22;11636;52.086;5.090;2022-12-18T13:21:28;-0.50;99.90
22940;DHT22;11636;52.086;5.090;2022-12-18T13:23:56;-0.50;99.90
22940;DHT22;11636;52.086;5.090;2022-12-18T13:26:31;-0.50;99.90
22940;DHT22;11636;52.086;5.090;2022-12-18T13:29:08;-0.50;99.90
22940;DHT22;11636;52.086;5.090;2022-12-18T13:34:18;-0.50;99.90
22940;DHT22;11636;52.086;5.090;2022-12-18T13:36:56;-0.50;99.90
22940;DHT22;11636;52.086;5.090;2022-12-18T13:39:33;-0.50;99.90
22940;DHT22;11636;52.086;5.090;2022-12-18T13:44:40;-0.50;99.90
22940;DHT22;11636;52.086;5.090;2022-12-18T13:47:35;-0.50;99.90
22940;DHT22;11636;52.086;5.090;2022-12-18T13:50:23;-0.50;99.90
22940;DHT22;11636;52.086;5.090;2022-12-18T13:52:50;-0.50;99.90
22940;DHT22;11636;52.086;5.090;2022-12-18T13:55:25;-0.50;99.90
22940;DHT22;11636;52.086;5.090;2022-12-18T13:58:03;-0.50;99.90
22940;DHT22;11636;52.086;5.090;2022-12-18T14:00:41;-0.50;99.90
22940;DHT22;11636;52.086;5.090;2022-12-18T14:03:20;-0.50;99.90
22940;DHT22;11636;52.086;5.090;2022-12-18T14:06:01;-0.50;99.90
22940;DHT22;11636;52.086;5.090;2022-12-18T14:08:39;-0.50;99.90
22940;DHT22;11636;52.086;5.090;2022-12-18T14:11:17;-0.50;99.90
22940;DHT22;11636;52.086;5.090;2022-12-18T14:13:54;-0.50;99.90
22940;DHT22;11636;52.086;5.090;2022-12-18T14:16:21;-0.50;99.90
22940;DHT22;11636;52.086;5.090;2022-12-18T14:18:56;-0.50;99.90
22940;DHT22;11636;52.086;5.090;2022-12-18T14:21:46;-0.40;99.90
22940;DHT22;11636;52.086;5.090;2022-12-18T14:24:26;-0.40;99.90
22940;DHT22;11636;52.086;5.090;2022-12-18T14:26:54;-0.40;99.90
22940;DHT22;11636;52.086;5.090;2022-12-18T14:29:44;-0.40;99.90
22940;DHT22;11636;52.086;5.090;2022-12-18T14:32:20;-0.40;99.90
22940;DHT22;11636;52.086;5.090;2022-12-18T14:34:54;-0.40;99.90
22940;DHT22;11636;52.086;5.090;2022-12-18T14:37:26;-0.40;99.90
22940;DHT22;11636;52.086;5.090;2022-12-18T14:40:02;-0.40;99.90
22940;DHT22;11636;52.086;5.090;2022-12-18T14:42:40;-0.40;99.90
22940;DHT22;11636;52.086;5.090;2022-12-18T14:45:33;-0.50;99.90
22940;DHT22;11636;52.086;5.090;2022-12-18T14:48:16;-0.40;99.90
22940;DHT22;11636;52.086;5.090;2022-12-18T14:51:01;-0.40;99.90
22940;DHT22;11636;52.086;5.090;2022-12-18T14:53:39;-0.40;99.90
22940;DHT22;11636;52.086;5.090;2022-12-18T14:56:19;-0.40;99.90
22940;DHT22;11636;52.086;5.090;2022-12-18T14:58:59;-0.40;99.90
22940;DHT22;11636;52.086;5.090;2022-12-18T15:01:29;-0.40;99.90
22940;DHT22;11636;52.086;5.090;2022-12-18T15:04:05;-0.40;99.90
22940;DHT22;11636;52.086;5.090;2022-12-18T15:07:08;-0.40;99.90
22940;DHT22;11636;52.086;5.090;2022-12-18T15:12:43;-0.40;99.90
22940;DHT22;11636;52.086;5.090;2022-12-18T15:21:09;-0.40;99.90
22940;DHT22;11636;52.086;5.090;2022-12-18T15:23:50;-0.40;99.90
22940;DHT22;11636;52.086;5.090;2022-12-18T15:26:23;-0.40;99.90
22940;DHT22;11636;52.086;5.090;2022-12-18T15:28:57;-0.40;99.90
22940;DHT22;11636;52.086;5.090;2022-12-18T15:31:40;-0.40;99.90
22940;DHT22;11636;52.086;5.090;2022-12-18T15:34:19;-0.40;99.90
22940;DHT22;11636;52.086;5.090;2022-12-18T15:36:50;-0.50;99.90
22940;DHT22;11636;52.086;5.090;2022-12-18T15:39:23;-0.50;99.90
22940;DHT22;11636;52.086;5.090;2022-12-18T15:41:51;-0.50;99.90
22940;DHT22;11636;52.086;5.090;2022-12-18T15:44:44;-0.50;99.90
22940;DHT22;11636;52.086;5.090;2022-12-18T15:47:21;-0.50;99.90
22940;DHT22;11636;52.086;5.090;2022-12-18T15:49:57;-0.50;99.90
22940;DHT22;11636;52.086;5.090;2022-12-18T15:52:39;-0.50;99.90
22940;DHT22;11636;52.086;5.090;2022-12-18T15:55:21;-0.50;99.90
22940;DHT22;11636;52.086;5.090;2022-12-18T15:58:15;-0.50;99.90
22940;DHT22;11636;52.086;5.090;2022-12-18T16:00:42;-0.40;99.90
22940;DHT22;11636;52.086;5.090;2022-12-18T16:03:15;-0.40;99.90
22940;DHT22;11636;52.086;5.090;2022-12-18T16:05:43;-0.40;99.90
22940;DHT22;11636;52.086;5.090;2022-12-18T16:08:17;-0.40;99.90
22940;DHT22;11636;52.086;5.090;2022-12-18T16:10:44;-0.40;99.90
22940;DHT22;11636;52.086;5.090;2022-12-18T16:13:24;-0.40;99.90
22940;DHT22;11636;52.086;5.090;2022-12-18T16:15:51;-0.40;99.90
22940;DHT22;11636;52.086;5.090;2022-12-18T16:18:25;-0.40;99.90
22940;DHT22;11636;52.086;5.090;2022-12-18T16:20:52;-0.30;99.90
22940;DHT22;11636;52.086;5.090;2022-12-18T16:23:19;-0.30;99.90
22940;DHT22;11636;52.086;5.090;2022-12-18T16:25:52;-0.30;99.90
22940;DHT22;11636;52.086;5.090;2022-12-18T16:28:21;-0.30;99.90
22940;DHT22;11636;52.086;5.090;2022-12-18T16:30:55;-0.30;99.90
22940;DHT22;11636;52.086;5.090;2022-12-18T16:33:22;-0.30;99.90
22940;DHT22;11636;52.086;5.090;2022-12-18T16:35:52;-0.30;99.90
22940;DHT22;11636;52.086;5.090;2022-12-18T16:38:26;-0.30;99.90
22940;DHT22;11636;52.086;5.090;2022-12-18T16:40:52;-0.20;99.90
22940;DHT22;11636;52.086;5.090;2022-12-18T16:43:47;-0.20;99.90
22940;DHT22;11636;52.086;5.090;2022-12-18T16:46:21;-0.30;99.90
22940;DHT22;11636;52.086;5.090;2022-12-18T16:48:48;-0.20;99.90
22940;DHT22;11636;52.086;5.090;2022-12-18T16:51:21;-0.20;99.90
22940;DHT22;11636;52.086;5.090;2022-12-18T16:53:54;-0.20;99.90
22940;DHT22;11636;52.086;5.090;2022-12-18T16:56:21;-0.20;99.90
22940;DHT22;11636;52.086;5.090;2022-12-18T16:58:56;-0.20;99.90
22940;DHT22;11636;52.086;5.090;2022-12-18T17:01:31;-0.20;99.90
22940;DHT22;11636;52.086;5.090;2022-12-18T17:04:16;-0.20;99.90
22940;DHT22;11636;52.086;5.090;2022-12-18T17:06:55;-0.20;99.90
22940;DHT22;11636;52.086;5.090;2022-12-18T17:09:22;-0.20;99.90
22940;DHT22;11636;52.086;5.090;2022-12-18T17:11:59;-0.10;99.90
22940;DHT22;11636;52.086;5.090;2022-12-18T17:14:33;-0.20;99.90
22940;DHT22;11636;52.086;5.090;2022-12-18T17:17:00;-0.10;99.90
22940;DHT22;11636;52.086;5.090;2022-12-18T17:19:47;-0.10;99.90
22940;DHT22;11636;52.086;5.090;2022-12-18T17:22:21;-0.10;99.90
22940;DHT22;11636;52.086;5.090;2022-12-18T17:24:49;-0.10;99.90
22940;DHT22;11636;52.086;5.090;2022-12-18T17:27:21;-0.10;99.90
22940;DHT22;11636;52.086;5.090;2022-12-18T17:29:55;-0.10;99.90
22940;DHT22;11636;52.086;5.090;2022-12-18T17:32:23;-0.10;99.90
22940;DHT22;11636;52.086;5.090;2022-12-18T17:34:50;0.00;99.90
22940;DHT22;11636;52.086;5.090;2022-12-18T17:37:31;-0.10;99.90
22940;DHT22;11636;52.086;5.090;2022-12-18T17:39:58;0.00;99.90